Latest Weather Observations for Swan Hill

IDN60801

Issued at 11:32 pm EDT Monday 30 March 2015 (issued every 30 minutes, with the page automatically refreshed every 10 minutes)

About weather observations | Map of weather stations | Latest weather observations for NSW | Other Formats
Station Details ID: 077094 Name: SWAN HILL AERODROME Lat: -35.38 Lon: 143.54 Height: 71.0 m
Data from the previous 72 hours. | See also: Recent months at Swan Hill
Date/Time
EDT
Temp
°C
App
Temp
°C
Dew
Point
Rel
Hum
%
Delta-T
°C
Wind Press
QNH
hPa
Press
MSL
hPa
Rain
since 9 am
mm
Dir
 
Spd
km/h
Gust
km/h
Spd
kts
Gust
kts
30/11:00pm 17.5 14.9 3.4 39 6.5 S 6 9 3 5 1024.1 1023.9 0.0
30/10:30pm 18.3 15.5 3.4 37 7.0 S 7 9 4 5 1024.1 1023.9 0.0
30/10:00pm 20.0 16.9 3.7 34 7.7 S 9 11 5 6 1023.9 1023.7 0.0
30/09:30pm 20.6 17.8 3.3 32 8.2 S 7 11 4 6 1023.7 1023.5 0.0
30/09:00pm 21.5 18.3 3.2 30 8.7 S 9 11 5 6 1023.5 1023.3 0.0
30/08:30pm 22.4 19.1 2.5 27 9.4 S 9 13 5 7 1023.2 1023.0 0.0
30/08:00pm 23.8 20.6 3.2 26 10.0 SSW 9 13 5 7 1022.9 1022.7 0.0
30/07:30pm 25.5 22.3 2.9 23 11.0 SSW 9 11 5 6 1022.5 1022.3 0.0
30/07:00pm 27.0 23.8 2.8 21 11.9 WSW 9 11 5 6 1022.3 1022.1 0.0
30/06:30pm 27.5 24.2 2.6 20 12.2 SW 9 15 5 8 1022.1 1021.9 0.0
30/06:00pm 28.1 24.0 2.3 19 12.6 WSW 13 20 7 11 1021.9 1021.7 0.0
30/05:30pm 28.2 23.7 2.4 19 12.7 WSW 15 20 8 11 1021.7 1021.5 0.0
30/05:00pm 28.3 25.1 3.2 20 12.5 SW 9 17 5 9 1021.6 1021.4 0.0
30/04:30pm 28.4 24.7 2.6 19 12.8 SW 11 24 6 13 1021.7 1021.5 0.0
30/04:00pm 28.1 23.8 3.0 20 12.5 W 15 22 8 12 1021.8 1021.6 0.0
30/03:30pm 28.9 25.3 3.0 19 13.0 SW 11 20 6 11 1021.9 1021.7 0.0
30/03:00pm 28.6 24.7 3.5 20 12.6 NW 13 19 7 10 1022.2 1022.0 0.0
30/02:30pm 27.4 23.5 3.2 21 12.0 WSW 13 24 7 13 1022.4 1022.2 0.0
30/02:00pm 27.8 24.3 3.5 21 12.1 W 11 20 6 11 1022.8 1022.6 0.0
30/01:30pm 27.4 23.8 3.2 21 12.0 SSE 11 20 6 11 1023.1 1022.9 0.0
30/01:00pm 27.7 24.9 3.4 21 12.1 NW 7 11 4 6 1023.5 1023.3 0.0
30/12:30pm 26.5 23.7 3.1 22 11.6 WNW 7 11 4 6 1023.9 1023.7 0.0
30/12:00pm 27.2 24.7 3.7 22 11.7 N 6 7 3 4 1024.1 1023.9 0.0
30/11:30am 25.9 23.6 4.9 26 10.6 N 6 9 3 5 1024.3 1024.1 0.0
30/11:00am 24.0 21.9 5.8 31 9.2 W 6 9 3 5 1024.5 1024.3 0.0
30/10:30am 22.2 20.1 6.0 35 8.2 W 6 7 3 4 1024.5 1024.3 0.0
30/10:00am 19.6 17.4 6.0 41 6.7 W 7 9 4 5 1024.3 1024.1 0.0
30/09:30am 18.0 15.8 5.2 43 6.2 W 6 7 3 4 1024.1 1023.9 0.0
30/09:00am 15.4 12.7 3.9 46 5.3 WNW 7 9 4 5 1023.8 1023.6 0.0
30/08:30am 12.9 10.1 2.2 48 4.6 WNW 6 9 3 5 1023.6 1023.4 0.0
30/08:00am 10.2 7.3 1.6 55 3.6 WNW 6 7 3 4 1023.3 1023.1 0.0
30/07:30am 10.1 7.2 1.7 56 3.5 WNW 6 7 3 4 1022.9 1022.7 0.0
30/07:00am 10.5 7.4 1.6 54 3.7 WNW 7 11 4 6 1022.7 1022.5 0.0
30/06:30am 10.4 8.7 1.8 55 3.6 CALM 0 0 0 0 1022.6 1022.4 0.0
30/05:30am 11.5 9.9 2.3 53 4.0 CALM 0 0 0 0 1022.3 1022.1 0.0
30/05:00am 12.1 10.6 2.8 53 4.1 CALM 0 6 0 3 1022.1 1021.9 0.0
30/04:30am 12.7 10.0 2.8 51 4.4 WNW 6 7 3 4 1022.0 1021.8 0.0
30/04:00am 12.8 10.3 3.7 54 4.1 WNW 6 9 3 5 1022.0 1021.8 0.0
30/03:30am 13.6 9.5 2.5 47 4.9 WNW 13 20 7 11 1022.1 1021.9 0.0
30/03:00am 14.2 11.4 5.3 55 4.2 WNW 9 11 5 6 1022.0 1021.8 0.0
30/02:30am 15.2 12.5 3.7 46 5.3 W 7 9 4 5 1022.1 1021.9 0.0
30/02:00am 16.3 13.1 3.0 41 6.0 W 9 11 5 6 1022.2 1022.0 0.0
30/01:30am 16.4 13.8 4.4 45 5.6 NNW 7 9 4 5 1022.3 1022.1 0.0
30/01:00am 16.0 13.7 4.7 47 5.3 NNW 6 7 3 4 1022.3 1022.1 0.0
30/12:30am 15.6 13.3 4.9 49 5.1 NNW 6 7 3 4 1022.4 1022.2 0.0
30/12:00am 15.8 13.4 5.4 50 5.0 NNW 7 9 4 5 1022.5 1022.3 0.0
 
Date/Time
EDT
Temp
°C
App
Temp
°C
Dew
Point
Rel
Hum
%
Delta-T
°C
Wind Press
QNH
hPa
Press
MSL
hPa
Rain
since 9 am
mm
Dir
 
Spd
km/h
Gust
km/h
Spd
kts
Gust
kts
29/11:30pm 16.1 13.1 6.0 51 4.9 NNW 11 13 6 7 1022.6 1022.4 0.0
29/11:00pm 16.8 14.5 5.7 48 5.4 NNW 7 9 4 5 1022.6 1022.4 0.0
29/10:30pm 18.4 16.3 5.9 44 6.2 NNW 6 7 3 4 1022.7 1022.5 0.0
29/10:00pm 19.1 16.8 4.8 39 6.9 NNW 6 6 3 3 1022.6 1022.4 0.0
29/09:30pm 19.9 17.6 5.5 39 7.1 NNW 7 9 4 5 1022.5 1022.3 0.0
29/09:00pm 20.5 17.6 4.5 35 7.7 NNW 9 11 5 6 1022.2 1022.0 0.0
29/08:30pm 20.2 17.3 4.7 36 7.5 NNW 9 11 5 6 1022.0 1021.8 0.0
29/08:00pm 21.6 17.9 4.2 32 8.4 NNW 13 17 7 9 1021.7 1021.5 0.0
29/07:30pm 22.8 19.0 3.9 29 9.2 NNW 13 15 7 8 1021.4 1021.2 0.0
29/07:00pm 23.8 19.7 4.2 28 9.7 NW 15 19 8 10 1021.1 1020.9 0.0
29/06:30pm 24.9 20.8 4.1 26 10.3 NW 15 24 8 13 1020.9 1020.7 0.0
29/06:00pm 25.4 20.4 3.4 24 10.8 NNW 19 26 10 14 1020.7 1020.5 0.0
29/05:30pm 25.8 21.2 3.7 24 11.0 NW 17 26 9 14 1020.6 1020.4 0.0
29/05:00pm 25.6 21.5 4.1 25 10.7 NNW 15 26 8 14 1020.7 1020.5 0.0
29/04:30pm 25.3 22.0 4.4 26 10.5 N 11 22 6 12 1020.7 1020.5 0.0
29/04:00pm 26.0 23.6 4.5 25 10.8 NW 6 15 3 8 1020.9 1020.7 0.0
29/03:30pm 24.9 21.1 4.1 26 10.3 NNW 13 19 7 10 1021.2 1021.0 0.0
29/03:00pm 24.8 21.5 4.5 27 10.1 NNW 11 22 6 12 1021.5 1021.3 0.0
29/02:30pm 24.3 21.2 5.6 30 9.5 NNW 11 22 6 12 1021.9 1021.7 0.0
29/02:00pm 24.7 21.5 5.0 28 9.9 WSW 11 20 6 11 1022.1 1021.9 0.0
29/01:30pm 24.5 21.0 5.3 29 9.7 NW 13 20 7 11 1022.6 1022.4 0.0
29/01:00pm 23.6 20.6 6.0 32 9.0 NW 11 20 6 11 1023.0 1022.8 0.0
29/12:30pm 22.8 19.7 5.7 33 8.6 W 11 20 6 11 1023.7 1023.5 0.0
29/12:00pm 22.0 19.0 5.8 35 8.1 WNW 11 19 6 10 1023.9 1023.7 0.0
29/11:30am 22.0 19.1 6.3 36 8.0 NW 11 19 6 10 1024.1 1023.9 0.0
29/11:00am 21.4 18.5 6.5 38 7.5 N 11 15 6 8 1024.2 1024.0 0.0
29/10:30am 20.0 17.4 6.0 40 7.0 NW 9 13 5 7 1024.2 1024.0 0.0
29/10:00am 18.7 16.8 7.5 48 5.7 SSW 7 9 4 5 1024.2 1024.0 0.0
29/09:30am 15.3 14.6 6.8 57 4.2 CALM 0 0 0 0 1023.8 1023.6 0.0
29/09:00am 11.9 10.5 3.7 57 3.6 CALM 0 0 0 0 1023.4 1023.2 0.0
29/08:30am 10.1 8.6 2.9 61 3.1 CALM 0 0 0 0 1023.1 1022.9 0.0
29/08:00am 7.9 6.3 2.6 69 2.2 CALM 0 0 0 0 1022.8 1022.6 0.0
29/07:30am 7.4 4.4 1.0 64 2.6 SW 6 7 3 4 1022.3 1022.1 0.0
29/07:00am 7.6 5.7 0.6 61 2.8 CALM 0 0 0 0 1022.0 1021.8 0.0
29/06:30am 8.0 6.1 0.7 60 2.9 CALM 0 0 0 0 1021.8 1021.6 0.0
29/06:00am 8.2 6.7 3.1 70 2.2 CALM 0 0 0 0 1021.4 1021.2 0.0
29/05:30am 8.5 7.0 2.9 68 2.4 CALM 0 0 0 0 1021.1 1020.9 0.0
29/05:00am 8.8 7.2 2.2 63 2.8 CALM 0 0 0 0 1021.2 1021.0 0.0
29/04:30am 9.0 7.5 2.8 65 2.6 CALM 0 0 0 0 1021.2 1021.0 0.0
29/04:00am 9.2 6.9 0.6 55 3.5 SW 2 9 1 5 1021.0 1020.8 0.0
29/03:30am 9.9 8.3 2.7 61 3.1 CALM 0 0 0 0 1021.3 1021.1 0.0
29/03:00am 9.8 8.2 2.6 61 3.1 CALM 0 0 0 0 1021.4 1021.2 0.0
29/02:30am 10.3 7.4 1.2 53 3.8 SW 6 9 3 5 1021.6 1021.4 0.0
29/02:00am 11.2 9.9 4.0 61 3.2 CALM 0 0 0 0 1021.7 1021.5 0.0
29/01:30am 12.1 11.0 5.0 62 3.3 CALM 0 0 0 0 1021.9 1021.7 0.0
29/01:00am 12.4 10.7 2.0 49 4.5 CALM 0 0 0 0 1022.0 1021.8 0.0
29/12:30am 12.7 11.3 3.4 53 4.2 CALM 0 0 0 0 1022.1 1021.9 0.0
29/12:00am 13.2 12.0 4.6 56 3.9 CALM 0 0 0 0 1022.3 1022.1 0.0
 
Date/Time
EDT
Temp
°C
App
Temp
°C
Dew
Point
Rel
Hum
%
Delta-T
°C
Wind Press
QNH
hPa
Press
MSL
hPa
Rain
since 9 am
mm
Dir
 
Spd
km/h
Gust
km/h
Spd
kts
Gust
kts
28/11:30pm 13.5 12.4 4.9 56 4.0 CALM 0 0 0 0 1022.3 1022.1 0.0
28/11:00pm 14.1 12.8 4.1 51 4.6 CALM 0 0 0 0 1022.6 1022.4 0.0
28/10:30pm 14.4 13.2 4.7 52 4.5 CALM 0 0 0 0 1022.6 1022.4 0.0
28/10:00pm 15.3 13.2 4.1 47 5.2 SW 4 7 2 4 1022.6 1022.4 0.0
28/09:30pm 16.4 13.8 4.4 45 5.6 SW 7 9 4 5 1022.4 1022.2 0.0
28/09:00pm 16.2 13.2 3.9 44 5.7 SW 9 11 5 6 1022.3 1022.1 0.0
28/08:30pm 18.0 14.8 4.9 42 6.3 SW 11 15 6 8 1022.0 1021.8 0.0
28/08:00pm 18.3 14.7 4.8 41 6.5 WNW 13 15 7 8 1021.6 1021.4 0.0
28/07:30pm 19.7 16.5 5.0 38 7.2 W 11 17 6 9 1021.6 1021.4 0.0
28/07:00pm 20.7 17.9 5.1 36 7.7 WSW 9 13 5 7 1021.4 1021.2 0.0
28/06:30pm 21.1 18.9 5.1 35 7.9 W 6 11 3 6 1021.3 1021.1 0.0
28/06:00pm 21.6 19.4 5.5 35 8.0 S 6 11 3 6 1021.3 1021.1 0.0
28/05:30pm 21.9 19.1 5.3 34 8.3 WSW 9 15 5 8 1021.5 1021.3 0.0
28/05:00pm 22.0 18.5 5.4 34 8.3 SW 13 22 7 12 1021.7 1021.5 0.0
28/04:30pm 22.5 19.9 5.9 34 8.4 WSW 9 17 5 9 1022.0 1021.8 0.0
28/04:00pm 22.5 19.0 5.4 33 8.5 NW 13 22 7 12 1022.3 1022.1 0.0
28/03:30pm 21.8 17.9 5.3 34 8.2 SW 15 20 8 11 1022.5 1022.3 0.0
28/03:00pm 21.2 18.9 5.5 36 7.8 SW 7 15 4 8 1022.6 1022.4 0.0
28/02:30pm 21.1 18.1 5.9 37 7.6 WNW 11 19 6 10 1023.2 1023.0 0.0
28/02:00pm 20.1 17.4 5.7 39 7.1 SW 9 17 5 9 1023.9 1023.7 0.0
28/01:30pm 19.3 16.2 5.7 41 6.7 SW 11 17 6 9 1024.3 1024.1 0.0
28/01:00pm 18.6 15.6 5.8 43 6.3 SW 11 20 6 11 1024.9 1024.7 0.0
28/12:30pm 18.1 14.7 6.0 45 6.0 W 13 24 7 13 1025.3 1025.1 0.0
28/12:00pm 17.5 13.8 6.1 47 5.6 WSW 15 20 8 11 1025.7 1025.5 0.0
28/11:30am 17.0 14.0 6.2 49 5.3 SW 11 17 6 9 1025.9 1025.7 0.0
28/11:00am 16.5 14.3 6.3 51 5.0 SSE 7 13 4 7 1026.4 1026.2 0.0
28/10:30am 15.9 12.9 6.1 52 4.8 SSE 11 15 6 8 1026.5 1026.3 0.0
28/10:00am 15.0 11.7 6.3 56 4.2 SSE 13 17 7 9 1026.7 1026.5 0.0
28/09:30am 14.8 11.9 6.4 57 4.1 S 11 17 6 9 1026.4 1026.2 0.0
28/09:00am 13.5 12.7 6.6 63 3.3 CALM 0 7 0 4 1026.4 1026.2 0.0
28/08:30am 8.8 7.5 4.0 72 2.1 CALM 0 0 0 0 1026.3 1026.1 0.0
28/08:00am 6.3 4.6 2.0 74 1.7 CALM 0 0 0 0 1026.0 1025.8 0.0
28/07:30am 5.6 3.8 1.3 74 1.7 CALM 0 0 0 0 1025.4 1025.2 0.0
28/07:00am 5.8 4.0 1.5 74 1.7 CALM 0 0 0 0 1025.1 1024.9 0.0
28/06:30am 6.3 4.6 2.0 74 1.8 CALM 0 0 0 0 1024.9 1024.7 0.0
28/06:00am 6.9 5.2 2.0 71 2.0 CALM 0 0 0 0 1024.8 1024.6 0.0
28/05:39am 7.0 5.2 1.3 67 2.3 CALM 0 0 0 0 1024.9 1024.7 0.0
28/05:30am 6.9 5.3 2.4 73 1.9 CALM 0 0 0 0 1024.9 1024.7 0.0
28/05:22am 7.2 5.8 3.6 78 1.5 CALM 0 0 0 0 1024.9 1024.7 0.0
28/05:00am 7.1 5.4 1.8 69 2.2 CALM 0 0 0 0 1024.9 1024.7 0.0
28/04:30am 7.2 5.5 1.9 69 2.2 CALM 0 0 0 0 1024.8 1024.6 0.0
28/04:00am 7.6 5.9 2.1 68 2.3 CALM 0 0 0 0 1024.8 1024.6 0.0
28/03:30am 8.3 6.8 2.8 68 2.3 CALM 0 0 0 0 1025.0 1024.8 0.0
28/03:00am 8.3 6.8 2.8 68 2.3 CALM 0 0 0 0 1025.1 1024.9 0.0
28/02:30am 9.2 6.6 3.4 67 2.5 S 6 7 3 4 1025.1 1024.9 0.0
28/02:00am 10.1 7.0 3.6 64 2.8 SSW 9 11 5 6 1025.0 1024.8 0.0
28/01:30am 10.3 7.6 3.6 63 2.9 SSW 7 9 4 5 1025.1 1024.9 0.0
28/01:00am 10.9 8.2 3.9 62 3.1 S 7 11 4 6 1025.2 1025.0 0.0
28/12:30am 11.4 8.7 3.7 59 3.4 S 7 9 4 5 1025.3 1025.1 0.0
28/12:00am 11.9 8.9 3.9 58 3.6 S 9 13 5 7 1025.4 1025.2 0.0

Other Formats:

Comma delimited format used in spreadsheet applications
http://www.bom.gov.au/fwo/IDN60801/IDN60801.94843.axf

JavaScript Object Notation format (JSON) in row-major order
http://www.bom.gov.au/fwo/IDN60801/IDN60801.94843.json